Time;durP1;ratioP1;P1;durP2;ratioP2;P2;SDS_P1;SDS_P2;PMS_P1;PMS_P2;Temp;Humidity;BMP_temperature;BMP_pressure;BME280_temperature;BME280_humidity;BME280_pressure;Samples;Min_cycle;Max_cycle;Signal;HPM_P1;HPM_P2
2022/07/23 00:00:25;;;;;;;8.90;4.10;;;;;;;17.09;70.46;99603.01;1744039;82;21132;-80
2022/07/23 00:02:52;;;;;;;8.13;4.10;;;;;;;17.08;70.51;99605.30;1744412;82;21131;-80
2022/07/23 00:05:19;;;;;;;7.25;3.77;;;;;;;17.04;70.66;99606.91;1744143;82;21137;-81
2022/07/23 00:07:47;;;;;;;9.28;4.10;;;;;;;16.99;70.80;99608.50;1743849;82;21113;-81
2022/07/23 00:10:14;;;;;;;5.17;3.65;;;;;;;16.96;70.99;99609.16;1744511;82;21121;-78
2022/07/23 00:12:42;;;;;;;5.72;4.00;;;;;;;16.92;71.17;99597.86;1744198;82;21099;-81
2022/07/23 00:15:10;;;;;;;7.95;4.20;;;;;;;16.88;71.58;99606.98;1744649;82;21112;-82
2022/07/23 00:17:38;;;;;;;9.70;4.72;;;;;;;16.86;71.63;99611.50;1744350;82;21261;-81
2022/07/23 00:20:07;;;;;;;5.10;3.92;;;;;;;16.86;71.75;99610.17;1744287;82;21088;-82
2022/07/23 00:22:34;;;;;;;9.68;4.12;;;;;;;16.85;71.92;99613.31;1744129;82;21080;-81
2022/07/23 00:25:00;;;;;;;6.35;4.22;;;;;;;16.82;72.02;99609.95;1744252;82;21112;-81
2022/07/23 00:27:27;;;;;;;4.85;3.80;;;;;;;16.79;72.15;99611.45;1744414;82;21185;-80
2022/07/23 00:29:54;;;;;;;5.22;3.60;;;;;;;16.75;72.32;99614.77;1743978;82;21566;-81
2022/07/23 00:32:20;;;;;;;6.17;3.25;;;;;;;16.71;72.58;99615.43;1744007;82;21076;-81
2022/07/23 00:34:47;;;;;;;6.15;4.03;;;;;;;16.68;72.74;99615.60;1744274;82;21678;-83
2022/07/23 00:37:13;;;;;;;9.58;4.22;;;;;;;16.66;72.89;99612.19;1720122;82;21927;-82
2022/07/23 00:39:40;;;;;;;5.50;3.65;;;;;;;16.62;72.82;99611.96;1717128;83;21101;-82
2022/07/23 00:42:08;;;;;;;5.12;3.33;;;;;;;16.59;72.90;99612.14;1716943;83;21159;-82
2022/07/23 00:44:36;;;;;;;5.05;4.15;;;;;;;16.55;72.78;99609.29;1716680;83;21710;-82
2022/07/23 00:47:05;;;;;;;4.55;3.83;;;;;;;16.56;72.87;99616.77;1716884;83;21639;-82
2022/07/23 00:49:32;;;;;;;6.12;4.12;;;;;;;16.53;72.75;99614.69;1716612;83;21116;-81
2022/07/23 00:52:01;;;;;;;6.78;3.55;;;;;;;16.51;73.08;99621.05;1716791;83;21969;-83
2022/07/23 00:54:29;;;;;;;4.40;4.00;;;;;;;16.46;73.14;99620.45;1716890;83;21422;-82
2022/07/23 00:56:56;;;;;;;9.05;3.58;;;;;;;16.43;73.24;99623.28;1716930;83;21120;-83
2022/07/23 00:59:22;;;;;;;7.40;3.65;;;;;;;16.42;73.40;99625.55;1717471;81;21095;-80
2022/07/23 01:01:49;;;;;;;5.35;3.62;;;;;;;16.39;73.48;99626.59;1756614;81;21205;-85
2022/07/23 01:04:16;;;;;;;5.08;3.45;;;;;;;16.38;73.61;99627.52;1755418;81;21192;-83
2022/07/23 01:06:43;;;;;;;3.75;3.17;;;;;;;16.37;73.78;99628.94;1755533;81;21109;-82
2022/07/23 01:09:11;;;;;;;9.13;3.55;;;;;;;16.34;73.48;99629.50;1755473;81;22006;-83
2022/07/23 01:11:38;;;;;;;6.05;3.02;;;;;;;16.34;73.42;99633.96;1755415;81;22326;-82
2022/07/23 01:14:16;;;;;;;3.95;3.37;;;;;;;16.31;73.47;99638.11;1755370;81;21078;-83
2022/07/23 01:16:44;;;;;;;3.12;2.87;;;;;;;16.27;73.54;99636.55;1748513;81;21509;-82
2022/07/23 01:19:11;;;;;;;5.67;3.22;;;;;;;16.25;73.70;99638.45;1750887;81;21101;-80
2022/07/23 01:21:41;;;;;;;6.22;3.33;;;;;;;16.24;73.73;99642.91;1750856;81;21095;-83
2022/07/23 01:24:09;;;;;;;3.98;3.30;;;;;;;16.22;73.71;99638.61;1751115;81;21084;-82
2022/07/23 01:26:38;;;;;;;2.80;2.60;;;;;;;16.18;73.79;99639.27;1750866;81;21057;-83
2022/07/23 01:29:06;;;;;;;5.10;3.08;;;;;;;16.12;74.01;99639.59;1750817;81;20978;-82
2022/07/23 01:31:34;;;;;;;5.30;3.27;;;;;;;16.11;73.67;99644.53;1750623;81;21152;-83
2022/07/23 01:34:01;;;;;;;3.50;3.20;;;;;;;16.11;73.60;99640.55;1721415;81;21006;-82
2022/07/23 01:36:28;;;;;;;3.22;2.92;;;;;;;16.08;73.87;99639.39;1714515;83;21093;-83
2022/07/23 01:38:55;;;;;;;4.30;3.30;;;;;;;16.04;74.03;99638.71;1724152;83;21145;-82
2022/07/23 01:41:22;;;;;;;7.28;3.62;;;;;;;16.00;74.01;99641.61;1693250;83;21060;-83
2022/07/23 01:43:48;;;;;;;3.35;3.05;;;;;;;16.01;74.46;99639.35;1724046;83;21127;-83
2022/07/23 01:46:15;;;;;;;2.90;2.70;;;;;;;15.98;74.50;99639.88;1724283;83;21039;-82
2022/07/23 01:48:44;;;;;;;4.70;3.22;;;;;;;15.98;74.48;99641.69;1723705;83;21150;-82
2022/07/23 01:51:21;;;;;;;3.90;3.20;;;;;;;15.94;74.58;99635.70;1719690;83;20992;-83
2022/07/23 01:53:50;;;;;;;4.22;3.08;;;;;;;15.92;74.63;99643.34;1722314;83;21043;-82
2022/07/23 01:56:18;;;;;;;3.58;3.17;;;;;;;15.92;74.35;99651.30;1724108;83;21040;-83
2022/07/23 01:58:45;;;;;;;3.62;3.27;;;;;;;15.87;74.21;99651.58;1724386;83;21522;-83
2022/07/23 02:01:13;;;;;;;4.12;3.72;;;;;;;15.81;74.26;99655.88;1723969;83;21072;-82
2022/07/23 02:03:40;;;;;;;3.33;3.02;;;;;;;15.76;74.63;99649.97;1692819;83;21047;-80
2022/07/23 02:06:07;;;;;;;3.27;3.08;;;;;;;15.74;74.76;99642.53;1723966;83;21063;-82
2022/07/23 02:08:36;;;;;;;3.40;2.90;;;;;;;15.71;74.92;99651.98;1723858;83;21052;-82
2022/07/23 02:11:02;;;;;;;3.90;3.60;;;;;;;15.67;74.95;99645.98;1723941;83;21625;-82
2022/07/23 02:13:29;;;;;;;8.00;4.30;;;;;;;15.63;75.17;99644.90;1723766;83;21522;-83
2022/07/23 02:15:55;;;;;;;3.92;3.45;;;;;;;15.61;75.70;99649.80;1724165;83;21016;-83
2022/07/23 02:18:22;;;;;;;5.92;3.75;;;;;;;15.60;75.92;99642.80;1724124;83;21004;-81
2022/07/23 02:20:52;;;;;;;5.00;3.92;;;;;;;15.61;75.98;99643.17;1723917;83;21667;-83
2022/07/23 02:23:19;;;;;;;4.55;3.60;;;;;;;15.58;76.15;99646.46;1724062;83;21060;-82
2022/07/23 02:25:45;;;;;;;6.37;3.98;;;;;;;15.56;76.37;99647.87;1723925;83;21079;-82
2022/07/23 02:28:13;;;;;;;4.05;3.72;;;;;;;15.54;76.73;99644.92;1724105;83;21059;-82
2022/07/23 02:30:41;;;;;;;3.77;3.47;;;;;;;15.54;76.99;99645.77;1724328;83;21070;-83
2022/07/23 02:33:08;;;;;;;3.98;3.47;;;;;;;15.55;77.10;99647.50;1724294;83;21083;-81
2022/07/23 02:35:37;;;;;;;4.12;3.33;;;;;;;15.55;76.98;99646.62;1723893;83;21487;-81
2022/07/23 02:38:05;;;;;;;3.87;3.58;;;;;;;15.56;76.80;99649.19;1749827;81;20993;-78
2022/07/23 02:40:32;;;;;;;3.60;3.35;;;;;;;15.57;76.56;99646.94;1750697;81;21006;-80
2022/07/23 02:43:00;;;;;;;5.83;3.08;;;;;;;15.56;76.66;99651.00;1750903;81;21001;-80
2022/07/23 02:45:26;;;;;;;3.90;3.25;;;;;;;15.58;76.74;99657.07;1750895;81;21047;-79
2022/07/23 02:47:53;;;;;;;4.33;3.92;;;;;;;15.58;76.81;99649.99;1750747;81;21120;-79
2022/07/23 02:50:21;;;;;;;5.50;4.97;;;;;;;15.59;76.85;99654.34;1751055;81;21052;-80
2022/07/23 02:52:48;;;;;;;5.65;4.30;;;;;;;15.62;77.28;99654.66;1751099;81;21469;-80
2022/07/23 02:55:15;;;;;;;3.85;3.55;;;;;;;15.65;77.49;99659.81;1750939;81;21461;-81
2022/07/23 02:57:42;;;;;;;4.92;3.60;;;;;;;15.71;77.80;99662.59;1750589;81;21799;-79
2022/07/23 03:00:10;;;;;;;4.30;3.90;;;;;;;15.75;77.42;99662.80;1750647;81;21600;-79
2022/07/23 03:02:39;;;;;;;7.75;4.10;;;;;;;15.82;77.41;99662.91;1750868;81;21057;-79
2022/07/23 03:05:06;;;;;;;7.33;4.58;;;;;;;15.89;77.69;99666.09;1750692;81;21020;-82
2022/07/23 03:07:33;;;;;;;4.87;4.28;;;;;;;15.92;77.00;99665.45;1754055;81;21554;-82
2022/07/23 03:10:01;;;;;;;4.47;4.08;;;;;;;15.98;76.86;99663.77;1717306;81;22618;-83
2022/07/23 03:12:27;;;;;;;4.00;3.65;;;;;;;16.05;76.94;99660.79;1716138;82;21085;-81
2022/07/23 03:14:54;;;;;;;4.62;3.72;;;;;;;16.11;76.94;99664.45;1716537;83;21108;-82
2022/07/23 03:17:22;;;;;;;8.45;5.58;;;;;;;16.15;77.30;99667.30;1716498;82;21105;-80
2022/07/23 03:19:49;;;;;;;10.30;5.87;;;;;;;16.17;77.48;99668.06;1716915;83;21042;-81
2022/07/23 03:22:17;;;;;;;11.03;5.78;;;;;;;16.22;77.52;99672.64;1716506;82;21121;-82
2022/07/23 03:24:56;;;;;;;10.15;6.00;;;;;;;16.29;77.47;99671.39;1716350;82;22401;-81
2022/07/23 03:27:26;;;;;;;5.67;5.17;;;;;;;16.35;78.03;99682.97;1716487;82;21076;-82
2022/07/23 03:29:55;;;;;;;9.15;5.05;;;;;;;16.42;78.17;99669.36;1716561;83;21089;-81
2022/07/23 03:32:23;;;;;;;10.35;4.95;;;;;;;16.47;78.22;99673.94;1716829;83;21045;-82
2022/07/23 03:34:50;;;;;;;5.35;4.83;;;;;;;16.52;77.92;99678.52;1716389;83;21077;-79
2022/07/23 03:37:19;;;;;;;6.35;4.80;;;;;;;16.59;77.77;99677.70;1730511;82;21037;-81
2022/07/23 03:39:47;;;;;;;11.50;5.47;;;;;;;16.65;77.34;99682.67;1743803;82;21412;-80
2022/07/23 03:42:14;;;;;;;8.03;5.10;;;;;;;16.71;77.64;99677.87;1743659;82;21030;-81
2022/07/23 03:44:42;;;;;;;8.33;5.47;;;;;;;16.77;77.92;99675.31;1743652;82;21038;-81
2022/07/23 03:47:09;;;;;;;13.72;5.75;;;;;;;16.84;78.55;99679.35;1743689;82;21564;-80
2022/07/23 03:49:35;;;;;;;8.08;5.17;;;;;;;16.91;79.15;99677.20;1743693;82;21041;-80
2022/07/23 03:52:02;;;;;;;13.08;5.22;;;;;;;17.00;79.56;99681.98;1743671;82;21108;-80
2022/07/23 03:54:31;;;;;;;7.08;5.20;;;;;;;17.06;79.57;99678.98;1743724;82;21033;-82
2022/07/23 03:56:59;;;;;;;12.03;5.60;;;;;;;17.16;80.08;99686.40;1743998;82;21078;-81
2022/07/23 03:59:26;;;;;;;10.68;5.85;;;;;;;17.24;79.97;99688.13;1743755;82;21593;-78
2022/07/23 04:01:53;;;;;;;7.40;5.35;;;;;;;17.32;79.96;99684.55;1743586;82;21057;-82
2022/07/23 04:04:20;;;;;;;12.95;6.12;;;;;;;17.40;79.83;99684.95;1743893;82;21026;-81
2022/07/23 04:06:48;;;;;;;9.63;5.65;;;;;;;17.51;80.09;99688.75;1743816;82;21117;-82
2022/07/23 04:09:16;;;;;;;9.08;5.62;;;;;;;17.59;79.94;99691.81;1743605;82;21105;-78
2022/07/23 04:11:42;;;;;;;8.93;5.25;;;;;;;17.66;79.83;99691.81;1743628;82;21770;-81
2022/07/23 04:14:10;;;;;;;7.97;4.78;;;;;;;17.75;79.66;99688.59;1743729;82;21105;-81
2022/07/23 04:16:39;;;;;;;12.18;5.20;;;;;;;17.84;79.47;99685.84;1743452;82;21037;-81
2022/07/23 04:19:05;;;;;;;8.35;5.03;;;;;;;17.94;79.25;99678.17;1743574;82;21057;-81
2022/07/23 04:21:34;;;;;;;6.80;5.08;;;;;;;18.03;79.39;99678.06;1742816;82;21046;-80
2022/07/23 04:24:01;;;;;;;7.35;4.00;;;;;;;18.14;79.56;99683.55;1743751;82;21130;-80
2022/07/23 04:26:28;;;;;;;6.30;3.55;;;;;;;18.24;79.78;99674.50;1743776;82;21049;-80
2022/07/23 04:28:54;;;;;;;6.20;3.30;;;;;;;18.37;79.83;99674.09;1743592;82;21128;-82
2022/07/23 04:31:21;;;;;;;4.80;2.75;;;;;;;18.47;79.52;99670.36;1743699;82;21415;-81
2022/07/23 04:33:48;;;;;;;6.47;2.75;;;;;;;18.59;79.03;99673.55;1743586;82;21159;-81
2022/07/23 04:36:16;;;;;;;4.00;2.47;;;;;;;18.69;78.94;99672.47;1743991;82;21069;-81
2022/07/23 04:38:43;;;;;;;2.85;2.55;;;;;;;18.82;78.64;99672.53;1743527;82;21081;-83
2022/07/23 04:41:10;;;;;;;4.17;2.45;;;;;;;18.91;78.22;99667.48;1743986;82;21104;-81
2022/07/23 04:43:36;;;;;;;5.70;2.20;;;;;;;19.01;77.92;99667.69;1744047;82;22235;-81
2022/07/23 04:46:03;;;;;;;3.37;2.55;;;;;;;19.11;77.35;99671.92;1743842;82;21672;-81
2022/07/23 04:48:31;;;;;;;3.02;2.10;;;;;;;19.23;76.99;99667.58;1743857;82;21191;-82
2022/07/23 04:51:00;;;;;;;3.42;1.87;;;;;;;19.34;77.37;99672.19;1742885;82;21073;-82
2022/07/23 04:53:28;;;;;;;2.90;2.40;;;;;;;19.44;77.49;99674.60;1743464;82;21120;-77
2022/07/23 04:55:57;;;;;;;5.72;2.10;;;;;;;19.54;77.32;99673.00;1743675;82;21080;-82
2022/07/23 04:58:23;;;;;;;3.70;1.42;;;;;;;19.63;76.87;99677.68;1744117;80;21060;-82
2022/07/23 05:00:50;;;;;;;2.20;1.67;;;;;;;19.74;75.81;99676.11;1746169;81;21126;-80
2022/07/23 05:03:17;;;;;;;2.85;1.62;;;;;;;19.88;75.15;99677.83;1743969;82;21590;-80
2022/07/23 05:05:45;;;;;;;2.00;1.52;;;;;;;19.97;74.25;99676.70;1744059;82;21068;-82
2022/07/23 05:08:14;;;;;;;3.27;1.55;;;;;;;20.07;74.15;99673.36;1749951;80;21098;-82
2022/07/23 05:10:41;;;;;;;2.00;1.80;;;;;;;20.16;73.19;99679.39;1741997;82;21095;-81
2022/07/23 05:13:07;;;;;;;1.92;1.52;;;;;;;20.23;73.04;99683.31;1741938;82;21094;-83
2022/07/23 05:15:36;;;;;;;5.08;1.75;;;;;;;20.30;72.99;99677.89;1741703;82;21075;-81
2022/07/23 05:18:04;;;;;;;3.33;1.77;;;;;;;20.40;73.04;99680.75;1741725;82;21135;-81
2022/07/23 05:20:31;;;;;;;5.35;1.80;;;;;;;20.51;71.77;99682.17;1741737;82;21067;-81
2022/07/23 05:22:58;;;;;;;2.70;1.95;;;;;;;20.59;71.62;99677.12;1741748;82;21087;-81
2022/07/23 05:25:24;;;;;;;2.70;1.90;;;;;;;20.68;71.07;99683.63;1742256;82;21496;-82
2022/07/23 05:27:51;;;;;;;1.60;1.50;;;;;;;20.78;71.18;99685.98;1742033;82;21138;-80
2022/07/23 05:30:19;;;;;;;2.90;1.75;;;;;;;20.90;70.30;99688.72;1741713;82;21501;-80
2022/07/23 05:32:47;;;;;;;2.40;1.77;;;;;;;21.00;69.86;99688.39;1741858;82;21087;-82
2022/07/23 05:35:16;;;;;;;2.37;1.70;;;;;;;21.09;69.87;99685.50;1742043;82;21090;-80
2022/07/23 05:37:45;;;;;;;2.17;1.52;;;;;;;21.19;69.50;99681.65;1737855;81;21828;-80
2022/07/23 05:40:12;;;;;;;2.30;2.10;;;;;;;21.29;69.24;99686.66;1733856;82;22053;-81
2022/07/23 05:42:40;;;;;;;2.72;1.92;;;;;;;21.37;68.83;99688.73;1733837;82;21087;-81
2022/07/23 05:45:09;;;;;;;5.12;1.60;;;;;;;21.45;68.48;99693.89;1733924;82;21072;-80
2022/07/23 05:47:47;;;;;;;1.27;1.20;;;;;;;21.52;68.01;99692.47;1698342;82;21598;-80
2022/07/23 05:50:15;;;;;;;2.37;1.50;;;;;;;21.60;66.52;99697.70;1734025;82;21133;-82
2022/07/23 05:52:44;;;;;;;1.45;1.35;;;;;;;21.68;65.77;99696.63;1733016;82;21016;-80
2022/07/23 05:55:31;;;;;;;1.95;1.22;;;;;;;21.76;64.66;99692.02;1734200;82;21535;-82
2022/07/23 05:57:58;;;;;;;2.35;1.20;;;;;;;21.83;64.29;99690.05;1733703;82;21076;-80
2022/07/23 06:00:26;;;;;;;4.08;1.42;;;;;;;21.92;63.46;99686.29;1659347;85;21144;-82
2022/07/23 06:02:53;;;;;;;2.30;1.55;;;;;;;22.00;63.63;99685.20;1678867;85;21973;-81
2022/07/23 06:05:20;;;;;;;3.22;1.10;;;;;;;22.08;63.25;99683.60;1678999;85;21066;-82
2022/07/23 06:07:47;;;;;;;2.98;1.30;;;;;;;22.16;63.68;99685.68;1679008;85;21080;-79
2022/07/23 06:10:15;;;;;;;1.92;1.30;;;;;;;22.25;62.91;99683.58;1679038;85;21136;-82
2022/07/23 06:12:42;;;;;;;1.25;1.15;;;;;;;22.33;62.19;99687.53;1679348;85;21151;-83
2022/07/23 06:15:10;;;;;;;1.40;1.30;;;;;;;22.40;60.15;99682.02;1678920;85;21211;-82
2022/07/23 06:17:39;;;;;;;3.25;1.17;;;;;;;22.48;60.59;99692.10;1678889;85;21103;-82
2022/07/23 06:20:08;;;;;;;1.95;1.42;;;;;;;22.55;60.51;99686.13;1678814;85;21056;-81
2022/07/23 06:22:37;;;;;;;2.33;1.20;;;;;;;22.61;60.19;99685.63;1679071;85;21064;-82
2022/07/23 06:25:05;;;;;;;1.57;1.25;;;;;;;22.67;59.65;99680.73;1678867;85;21674;-80
2022/07/23 06:27:31;;;;;;;3.92;1.25;;;;;;;22.72;59.02;99683.39;1678705;85;21144;-82
2022/07/23 06:29:58;;;;;;;1.17;0.95;;;;;;;22.79;59.10;99689.10;1679292;85;21051;-82
2022/07/23 06:32:24;;;;;;;5.33;1.17;;;;;;;22.85;59.06;99685.05;1679046;85;21072;-82
2022/07/23 06:34:51;;;;;;;1.75;1.15;;;;;;;22.91;58.29;99688.07;1678581;85;21080;-82
2022/07/23 06:37:17;;;;;;;4.00;1.00;;;;;;;23.00;58.59;99693.19;1679088;84;21102;-81
2022/07/23 06:39:46;;;;;;;7.28;1.02;;;;;;;23.08;58.55;99684.50;1678934;85;21142;-82
2022/07/23 06:42:14;;;;;;;1.00;1.00;;;;;;;23.16;57.12;99694.95;1678755;85;21080;-80
2022/07/23 06:44:44;;;;;;;1.87;1.05;;;;;;;23.23;57.49;99693.09;1678820;85;21040;-81
2022/07/23 06:47:11;;;;;;;3.95;0.82;;;;;;;23.31;57.47;99694.14;1679027;85;21072;-81
2022/07/23 06:49:38;;;;;;;2.17;1.00;;;;;;;23.40;55.34;99688.97;1678854;85;21139;-82
2022/07/23 06:52:05;;;;;;;2.65;1.20;;;;;;;23.45;54.39;99697.02;1679612;84;21154;-81
2022/07/23 06:54:33;;;;;;;1.87;1.12;;;;;;;23.50;54.71;99695.25;1690868;84;21060;-81
2022/07/23 06:56:59;;;;;;;1.20;1.10;;;;;;;23.57;55.10;99692.42;1690878;84;21086;-83
2022/07/23 06:59:28;;;;;;;1.95;0.90;;;;;;;23.64;55.03;99693.59;1742210;82;20996;-82
2022/07/23 07:01:55;;;;;;;3.80;1.17;;;;;;;23.72;53.88;99689.75;1742486;82;21038;-82
2022/07/23 07:04:22;;;;;;;4.20;1.30;;;;;;;23.81;53.76;99688.09;1742078;82;22222;-80
2022/07/23 07:06:49;;;;;;;3.12;0.90;;;;;;;23.90;54.67;99697.20;1742137;82;21510;-83
2022/07/23 07:09:18;;;;;;;1.67;1.00;;;;;;;23.99;53.34;99696.89;1742133;82;21016;-82
2022/07/23 07:11:45;;;;;;;1.40;1.00;;;;;;;24.05;52.33;99689.13;1741737;82;21079;-82
2022/07/23 07:14:13;;;;;;;2.17;0.88;;;;;;;24.10;53.08;99696.30;1764000;80;20972;-81
2022/07/23 07:16:42;;;;;;;1.80;1.00;;;;;;;24.17;52.95;99692.58;1772641;80;39190;-82
2022/07/23 07:19:10;;;;;;;1.62;0.93;;;;;;;24.23;52.51;99681.79;1772744;80;21496;-80
2022/07/23 07:21:36;;;;;;;1.65;1.20;;;;;;;24.29;52.73;99682.56;1772788;80;21067;-76
2022/07/23 07:24:03;;;;;;;4.92;0.80;;;;;;;24.34;52.91;99680.31;1772967;80;21066;-83
2022/07/23 07:26:30;;;;;;;2.45;1.07;;;;;;;24.43;52.90;99680.84;1772715;80;21110;-81
2022/07/23 07:28:57;;;;;;;2.17;1.10;;;;;;;24.50;52.80;99681.65;1773048;80;21109;-81
2022/07/23 07:31:24;;;;;;;1.82;1.20;;;;;;;24.55;52.95;99681.61;1772687;80;21119;-84
2022/07/23 07:33:50;;;;;;;1.30;0.98;;;;;;;24.62;52.91;99684.59;1772764;80;21107;-79
2022/07/23 07:36:17;;;;;;;2.77;1.17;;;;;;;24.68;52.83;99684.05;1772714;80;21060;-83
2022/07/23 07:38:43;;;;;;;5.53;1.20;;;;;;;24.76;52.70;99684.16;1775200;80;21063;-81
2022/07/23 07:41:10;;;;;;;1.75;1.10;;;;;;;24.85;53.03;99686.03;1778629;80;21542;-83
2022/07/23 07:43:37;;;;;;;1.25;1.10;;;;;;;24.91;52.36;99678.38;1778688;80;22059;-82
2022/07/23 07:46:04;;;;;;;2.90;1.10;;;;;;;24.96;52.95;99676.11;1778638;80;21060;-83
2022/07/23 07:48:30;;;;;;;1.15;0.90;;;;;;;25.04;53.38;99673.56;1778213;80;21068;-79
2022/07/23 07:50:57;;;;;;;4.78;0.98;;;;;;;25.13;52.31;99683.49;1778338;80;21058;-83
2022/07/23 07:53:24;;;;;;;1.10;1.00;;;;;;;25.21;52.56;99675.52;1778433;80;21132;-83
2022/07/23 07:55:51;;;;;;;2.45;1.00;;;;;;;25.29;52.07;99688.31;1778410;80;21130;-82
2022/07/23 07:58:18;;;;;;;3.15;1.00;;;;;;;25.37;51.49;99680.87;1778368;80;21106;-81
2022/07/23 08:00:45;;;;;;;1.80;1.02;;;;;;;25.45;51.62;99681.48;1778889;80;21016;-83
2022/07/23 08:03:11;;;;;;;3.75;1.00;;;;;;;25.53;52.02;99685.14;1778968;80;21189;-83
2022/07/23 08:05:39;;;;;;;2.77;0.80;;;;;;;25.61;51.19;99688.98;1778447;80;21646;-80
2022/07/23 08:08:06;;;;;;;1.20;0.90;;;;;;;25.68;51.34;99684.70;1778526;80;21675;-83
2022/07/23 08:10:34;;;;;;;1.70;0.88;;;;;;;25.77;49.96;99694.10;1778471;80;21134;-82
2022/07/23 08:13:01;;;;;;;1.98;1.07;;;;;;;25.81;50.02;99693.30;1778900;80;21161;-82
2022/07/23 08:15:29;;;;;;;2.02;1.05;;;;;;;25.88;50.33;99687.67;1778646;80;21062;-81
2022/07/23 08:17:55;;;;;;;1.82;0.90;;;;;;;25.95;50.58;99694.19;1778899;80;21206;-83
2022/07/23 08:20:22;;;;;;;3.80;1.00;;;;;;;26.03;49.18;99689.42;1778675;80;21090;-82
2022/07/23 08:23:05;;;;;;;1.95;0.80;;;;;;;26.05;49.08;99688.77;1778337;80;21099;-83
2022/07/23 08:25:38;;;;;;;6.72;1.40;;;;;;;26.09;48.48;99692.01;1778949;80;21004;-80
2022/07/23 08:28:08;;;;;;;1.72;1.00;;;;;;;26.07;48.79;99689.97;1778524;80;20980;-80
2022/07/23 08:30:34;;;;;;;2.17;1.07;;;;;;;26.10;49.01;99687.82;1778650;80;21127;-80
2022/07/23 08:33:06;;;;;;;5.00;1.00;;;;;;;26.20;50.49;99693.68;1778732;80;21102;-80
2022/07/23 08:35:36;;;;;;;3.02;0.90;;;;;;;26.28;48.65;99679.79;1778885;80;21095;-83
2022/07/23 08:38:07;;;;;;;4.67;0.80;;;;;;;26.38;48.54;99685.61;1778315;80;21769;-82
2022/07/23 08:40:38;;;;;;;2.22;0.90;;;;;;;26.46;47.94;99678.97;1778524;80;21578;-81
2022/07/23 08:43:08;;;;;;;1.35;1.00;;;;;;;26.54;48.47;99676.36;1778723;80;21221;-81
2022/07/23 08:45:40;;;;;;;4.60;1.10;;;;;;;26.63;48.44;99675.97;1777078;80;21082;-80
2022/07/23 08:48:15;;;;;;;1.20;0.90;;;;;;;26.71;47.71;99674.70;1764032;81;21103;-83
2022/07/23 08:50:47;;;;;;;2.87;0.88;;;;;;;26.77;47.16;99670.57;1766279;81;21511;-81
2022/07/23 08:53:14;;;;;;;8.35;0.95;;;;;;;26.84;47.38;99672.98;1765965;81;21066;-80
2022/07/23 08:55:45;;;;;;;6.30;1.12;;;;;;;26.90;46.62;99668.33;1765836;81;22155;-80
2022/07/23 08:58:12;;;;;;;1.02;0.78;;;;;;;26.94;45.99;99669.70;1766093;81;20933;-81
2022/07/23 09:00:38;;;;;;;2.75;1.25;;;;;;;26.97;46.35;99668.05;1766278;81;21104;-81
2022/07/23 09:03:05;;;;;;;4.50;0.80;;;;;;;27.03;47.07;99671.48;1765977;81;21071;-81
2022/07/23 09:05:32;;;;;;;1.62;0.88;;;;;;;27.14;46.45;99668.20;1766011;81;21138;-79
2022/07/23 09:08:14;;;;;;;3.52;0.88;;;;;;;27.19;45.08;99664.52;1766096;81;21196;-82
2022/07/23 09:10:59;;;;;;;0.80;0.80;;;;;;;27.24;45.54;99667.59;1766449;81;21499;-82
2022/07/23 09:13:42;;;;;;;3.55;0.80;;;;;;;27.31;46.20;99665.98;1765950;81;20992;-82
2022/07/23 09:16:17;;;;;;;1.00;0.90;;;;;;;27.41;46.11;99661.33;1766140;81;21051;-84
2022/07/23 09:18:48;;;;;;;1.17;1.10;;;;;;;27.50;44.25;99660.88;1766313;81;21024;-79
2022/07/23 09:21:25;;;;;;;1.97;1.17;;;;;;;27.49;42.83;99661.03;1774919;80;21578;-82
2022/07/23 09:24:05;;;;;;;2.45;0.80;;;;;;;27.43;43.50;99661.17;1778618;80;22224;-81
2022/07/23 09:26:42;;;;;;;3.72;0.82;;;;;;;27.46;42.59;99660.02;1778725;80;21024;-80
2022/07/23 09:29:25;;;;;;;2.75;0.50;;;;;;;27.49;42.92;99655.63;1778577;80;21074;-80
2022/07/23 09:32:00;;;;;;;0.90;0.90;;;;;;;27.55;42.65;99654.48;1778803;80;21027;-81
2022/07/23 09:34:38;;;;;;;0.80;0.75;;;;;;;27.64;43.00;99652.70;1778855;80;21118;-84
2022/07/23 09:37:14;;;;;;;3.05;0.80;;;;;;;27.77;43.28;99653.59;1778017;80;21090;-81
2022/07/23 09:39:42;;;;;;;0.90;0.90;;;;;;;27.85;43.21;99653.65;1778551;80;21125;-82
2022/07/23 09:42:25;;;;;;;2.22;0.85;;;;;;;27.92;41.84;99652.50;1778623;80;21012;-81
2022/07/23 09:44:56;;;;;;;0.88;0.72;;;;;;;27.91;41.92;99648.12;1738758;82;20967;-81
2022/07/23 09:47:29;;;;;;;1.32;0.85;;;;;;;27.87;42.02;99646.73;1778617;80;22153;-82
2022/07/23 09:50:05;;;;;;;1.65;0.70;;;;;;;27.95;42.73;99646.80;1778444;80;22075;-81
2022/07/23 09:52:36;;;;;;;10.32;1.10;;;;;;;28.02;42.07;99651.05;1778546;80;21035;-82
2022/07/23 09:55:04;;;;;;;2.35;0.90;;;;;;;28.05;41.64;99643.46;1778393;80;21565;-81
2022/07/23 09:57:34;;;;;;;1.67;0.95;;;;;;;28.03;42.37;99652.25;1778737;80;21562;-82
2022/07/23 10:00:07;;;;;;;3.55;1.00;;;;;;;28.08;42.07;99649.91;1778669;80;21766;-80
2022/07/23 10:02:34;;;;;;;2.52;0.98;;;;;;;28.10;42.22;99641.11;1778886;80;21083;-81
2022/07/23 10:05:15;;;;;;;1.65;0.90;;;;;;;28.15;42.14;99645.52;1716186;80;22098;-82
2022/07/23 10:07:49;;;;;;;2.55;0.82;;;;;;;28.23;41.72;99645.23;1762336;80;21043;-79
2022/07/23 10:10:18;;;;;;;3.00;1.00;;;;;;;28.30;40.91;99640.34;1719670;80;20996;-81
2022/07/23 10:15:51;;;;;;;;;;;;;;;28.50;41.49;99630.06;1781367;80;21055;-81
2022/07/23 10:18:19;;;;;;;4.45;0.93;;;;;;;28.68;41.74;99632.67;1778724;80;20203;-81
2022/07/23 10:20:47;;;;;;;3.00;1.00;;;;;;;28.81;42.67;99632.16;1778484;80;21000;-76
2022/07/23 10:23:26;;;;;;;4.40;0.93;;;;;;;28.95;41.54;99632.50;1750759;80;21121;-81
2022/07/23 10:26:40;;;;;;;1.60;1.02;;;;;;;29.06;40.58;99630.30;1778272;80;21129;-81
2022/07/23 10:29:12;;;;;;;;;;;;;;;29.17;41.23;99631.87;1781027;80;21001;-82
2022/07/23 10:31:58;;;;;;;4.67;0.80;;;;;;;29.35;41.58;99631.66;1779035;80;20196;-82
2022/07/23 10:34:39;;;;;;;1.20;0.90;;;;;;;29.48;40.29;99632.48;1778653;80;21047;-82
2022/07/23 10:37:31;;;;;;;3.00;1.30;;;;;;;29.54;39.67;99624.16;1778524;80;21122;-80
2022/07/23 10:40:19;;;;;;;9.43;3.52;;;;;;;29.60;41.11;99623.48;1772970;80;21698;-81
2022/07/23 10:42:46;;;;;;;4.45;2.85;;;;;;;29.69;40.85;99621.58;1777924;80;21593;-81
2022/07/23 10:45:34;;;;;;;5.62;1.82;;;;;;;29.70;39.74;99620.57;1778387;80;21511;-81
2022/07/23 10:48:20;;;;;;;0.80;0.80;;;;;;;29.63;40.16;99621.26;1761233;80;22262;-79
2022/07/23 10:51:07;;;;;;;5.47;0.90;;;;;;;29.58;38.84;99614.16;1760692;81;20994;-80
2022/07/23 10:53:57;;;;;;;1.30;0.93;;;;;;;29.57;38.98;99611.13;1759680;81;21815;-82
2022/07/23 10:57:00;;;;;;;1.45;1.00;;;;;;;29.64;39.04;99605.86;1760782;81;21059;-83
2022/07/23 10:59:27;;;;;;;2.95;1.00;;;;;;;29.72;38.31;99607.67;1760835;81;21990;-81
2022/07/23 11:01:57;;;;;;;2.55;0.93;;;;;;;29.78;38.69;99608.38;1760553;81;21044;-83
2022/07/23 11:04:51;;;;;;;2.22;1.02;;;;;;;29.82;38.63;99611.05;1711806;81;21008;-83
2022/07/23 11:07:17;;;;;;;3.35;1.00;;;;;;;29.91;40.00;99607.30;1760911;81;21061;-84
2022/07/23 11:09:48;;;;;;;2.95;0.80;;;;;;;29.99;39.46;99611.34;1760440;81;21587;-80
2022/07/23 11:12:29;;;;;;;0.88;0.80;;;;;;;29.94;38.52;99606.95;1760956;81;20997;-83
2022/07/23 11:15:07;;;;;;;3.85;0.90;;;;;;;29.81;38.33;99613.45;1760807;81;21182;-85
2022/07/23 11:17:52;;;;;;;2.37;0.90;;;;;;;29.62;38.63;99603.31;1760842;81;20980;-83
2022/07/23 11:20:22;;;;;;;1.82;0.90;;;;;;;29.49;39.00;99605.73;1761205;81;21149;-83
2022/07/23 11:22:52;;;;;;;3.77;0.80;;;;;;;29.41;38.92;99605.74;1760711;81;21092;-82
2022/07/23 11:25:32;;;;;;;1.65;0.80;;;;;;;29.30;38.66;99608.28;1768213;80;21129;-84
2022/07/23 11:28:11;;;;;;;1.90;1.07;;;;;;;29.17;38.05;99606.13;1778518;80;20987;-81
2022/07/23 11:30:41;;;;;;;2.95;0.95;;;;;;;29.00;37.44;99601.69;1778564;80;21102;-84
2022/07/23 11:33:16;;;;;;;2.60;0.80;;;;;;;28.97;38.40;99600.70;1778289;80;21213;-85
2022/07/23 11:35:45;;;;;;;3.35;1.00;;;;;;;28.95;36.90;99598.64;1778430;80;21115;-84
2022/07/23 11:38:19;;;;;;;1.02;0.62;;;;;;;28.93;38.03;99599.33;1778647;80;21059;-81
2022/07/23 11:40:50;;;;;;;3.83;0.60;;;;;;;29.00;38.49;99593.56;1778465;80;20999;-82
2022/07/23 11:43:17;;;;;;;3.58;1.10;;;;;;;29.10;39.68;99591.52;1780515;80;21001;-81
2022/07/23 11:45:51;;;;;;;1.07;0.70;;;;;;;29.15;39.39;99593.23;1781260;80;21083;-82
2022/07/23 11:48:27;;;;;;;0.80;0.80;;;;;;;29.18;39.35;99590.19;1780639;80;21605;-81